Time;durP1;ratioP1;P1;durP2;ratioP2;P2;SDS_P1;SDS_P2;PMS_P1;PMS_P2;Temp;Humidity;BMP_temperature;BMP_pressure;BME280_temperature;BME280_humidity;BME280_pressure;Samples;Min_cycle;Max_cycle;Signal;HPM_P1;HPM_P2
2021/12/20 00:00:21;;;;;;;0.10;0.10;;;;;;;10.65;66.24;102974.69;5014414;28;20099;-83
2021/12/20 00:02:51;;;;;;;0.30;0.30;;;;;;;10.64;66.16;102972.00;5015463;28;20033;-85
2021/12/20 00:05:20;;;;;;;0.10;0.10;;;;;;;10.63;66.13;102976.41;5012246;28;20032;-83
2021/12/20 00:07:48;;;;;;;0.10;0.10;;;;;;;10.60;65.68;102971.06;5015403;28;20106;-84
2021/12/20 00:10:17;;;;;;;0.10;0.10;;;;;;;10.60;65.73;102968.41;5015153;28;20037;-82
2021/12/20 00:12:45;;;;;;;0.10;0.10;;;;;;;10.59;65.65;102969.31;5014752;28;20091;-83
2021/12/20 00:15:12;;;;;;;0.60;0.60;;;;;;;10.58;65.60;102975.47;5016275;28;20125;-83
2021/12/20 00:17:38;;;;;;;0.10;0.10;;;;;;;10.61;65.66;102967.53;5015760;28;20485;-83
2021/12/20 00:20:05;;;;;;;0.10;0.10;;;;;;;10.62;65.77;102974.63;5014734;28;20042;-83
2021/12/20 00:22:32;;;;;;;0.10;0.10;;;;;;;10.62;65.64;102976.41;5014134;28;20034;-83
2021/12/20 00:24:58;;;;;;;0.30;0.30;;;;;;;10.63;65.65;102975.50;5014656;28;20048;-83
2021/12/20 00:27:24;;;;;;;0.13;0.13;;;;;;;10.63;65.76;102963.16;5016053;28;20065;-84
2021/12/20 00:29:51;;;;;;;0.10;0.10;;;;;;;10.60;65.54;102957.81;5013791;28;20040;-84
2021/12/20 00:32:18;;;;;;;0.13;0.13;;;;;;;10.60;65.86;102970.19;5013808;28;20125;-83
2021/12/20 00:34:45;;;;;;;0.10;0.10;;;;;;;10.58;65.60;102967.53;5014831;28;20065;-83
2021/12/20 00:40:30;;;;;;;0.10;0.10;;;;;;;10.59;65.77;102964.00;5017494;28;20038;-83
2021/12/20 00:42:47;;;;;;;0.10;0.10;;;;;;;10.58;65.63;102964.88;5011966;28;20042;-83
2021/12/20 00:45:14;;;;;;;0.10;0.10;;;;;;;10.56;65.75;102950.69;5013758;28;20037;-84
2021/12/20 00:47:41;;;;;;;0.10;0.10;;;;;;;10.54;65.38;102943.59;5014629;28;20055;-83
2021/12/20 00:50:10;;;;;;;0.20;0.20;;;;;;;10.48;64.17;102947.03;5016772;28;20022;-82
2021/12/20 00:52:36;;;;;;;0.10;0.10;;;;;;;10.47;65.16;102946.16;5015117;28;20469;-81
2021/12/20 00:55:04;;;;;;;0.20;0.20;;;;;;;10.45;64.56;102952.31;5014429;28;20120;-83
2021/12/20 00:57:30;;;;;;;0.52;0.52;;;;;;;10.45;64.28;102949.66;5015687;28;20362;-83
2021/12/20 00:59:56;;;;;;;0.10;0.10;;;;;;;10.43;63.87;102962.88;5019067;28;20037;-83
2021/12/20 01:02:22;;;;;;;0.10;0.10;;;;;;;10.40;63.77;102954.00;5015511;28;20088;-82
2021/12/20 01:04:48;;;;;;;0.10;0.10;;;;;;;10.40;63.33;102954.88;5015260;28;20026;-83
2021/12/20 01:07:15;;;;;;;0.10;0.10;;;;;;;10.40;64.09;102954.88;5014278;28;20030;-83
2021/12/20 01:09:41;;;;;;;0.43;0.43;;;;;;;10.40;64.01;102943.41;5011525;28;20447;-83
2021/12/20 01:12:15;;;;;;;0.10;0.10;;;;;;;10.36;63.05;102948.63;5014531;28;20101;-84
2021/12/20 01:14:41;;;;;;;0.17;0.17;;;;;;;10.35;62.77;102951.22;5013357;28;20527;-83
2021/12/20 01:17:07;;;;;;;0.10;0.10;;;;;;;10.35;63.71;102949.50;5015406;28;20040;-82
2021/12/20 01:19:35;;;;;;;0.10;0.10;;;;;;;10.34;63.42;102949.44;5014121;28;20037;-83
2021/12/20 01:22:04;;;;;;;0.10;0.10;;;;;;;10.32;62.95;102949.44;5014370;28;20030;-83
2021/12/20 01:24:31;;;;;;;0.10;0.10;;;;;;;10.32;63.59;102954.72;5014733;28;20037;-84
2021/12/20 01:26:58;;;;;;;0.20;0.20;;;;;;;10.32;63.40;102946.78;5014972;28;20091;-83
2021/12/20 01:29:24;;;;;;;0.10;0.10;;;;;;;10.32;63.14;102944.13;5015752;28;20025;-84
2021/12/20 01:31:51;;;;;;;0.20;0.20;;;;;;;10.30;63.00;102944.97;5012770;28;20033;-82
2021/12/20 01:34:17;;;;;;;0.10;0.10;;;;;;;10.25;61.50;102934.31;5013744;28;20052;-84
2021/12/20 01:36:43;;;;;;;0.20;0.20;;;;;;;10.27;61.88;102943.19;5014176;28;20062;-82
2021/12/20 01:39:10;;;;;;;0.40;0.40;;;;;;;10.27;62.35;102947.56;5014431;28;20053;-83
2021/12/20 01:41:41;;;;;;;0.10;0.10;;;;;;;10.31;62.65;102950.28;5015649;28;20030;-83
2021/12/20 01:44:08;;;;;;;0.20;0.20;;;;;;;10.29;62.82;102946.75;5013550;28;20034;-83
2021/12/20 01:46:34;;;;;;;0.20;0.20;;;;;;;10.27;61.29;102942.28;5016025;28;20466;-83
2021/12/20 01:49:04;;;;;;;0.10;0.10;;;;;;;10.27;61.89;102950.22;5014601;28;20026;-83
2021/12/20 01:54:38;;;;;;;0.15;0.15;;;;;;;10.29;62.84;102945.84;4898313;27;5375274;-80
2021/12/20 01:57:13;;;;;;;0.20;0.20;;;;;;;10.29;62.80;102952.06;5059314;28;20033;-81
2021/12/20 01:59:47;;;;;;;0.17;0.17;;;;;;;10.29;63.18;102945.84;5055249;28;20374;-81
2021/12/20 02:02:14;;;;;;;0.10;0.10;;;;;;;10.26;62.76;102945.81;5050210;28;20037;-82
2021/12/20 02:04:47;;;;;;;0.20;0.20;;;;;;;10.22;62.05;102944.88;5056143;28;20131;-82
2021/12/20 02:07:31;;;;;;;0.20;0.20;;;;;;;10.23;62.26;102946.66;5057975;28;20033;-82
2021/12/20 02:09:59;;;;;;;0.10;0.10;;;;;;;10.23;62.74;102941.38;5051277;28;20035;-82
2021/12/20 02:12:25;;;;;;;0.10;0.10;;;;;;;10.23;62.61;102941.38;5051668;28;20026;-83
2021/12/20 02:14:51;;;;;;;0.10;0.10;;;;;;;10.22;62.09;102944.88;5054134;28;20025;-83
2021/12/20 02:17:17;;;;;;;0.10;0.10;;;;;;;10.23;62.65;102940.44;5056247;28;20068;-83
2021/12/20 02:19:43;;;;;;;0.10;0.10;;;;;;;10.20;61.78;102938.66;5050779;28;20112;-83
2021/12/20 02:22:10;;;;;;;0.10;0.10;;;;;;;10.19;61.39;102931.56;5052133;28;20456;-83
2021/12/20 02:24:36;;;;;;;0.10;0.10;;;;;;;10.17;61.07;102930.66;5052272;28;20025;-81
2021/12/20 02:27:02;;;;;;;0.10;0.10;;;;;;;10.17;61.64;102939.50;5050092;28;20439;-82
2021/12/20 02:29:43;;;;;;;0.10;0.10;;;;;;;10.19;61.56;102939.50;5054094;28;20052;-82
2021/12/20 02:37:42;;;;;;;0.10;0.10;;;;;;;10.15;60.80;102932.41;5056453;28;20186;-82
2021/12/20 02:40:09;;;;;;;0.10;0.10;;;;;;;10.13;60.58;102934.13;5049285;28;20041;-82
2021/12/20 02:42:37;;;;;;;0.55;0.55;;;;;;;10.13;60.26;102935.03;5053295;28;20036;-82
2021/12/20 02:45:11;;;;;;;3.40;2.10;;;;;;;10.13;60.68;102926.16;5050911;28;20057;-82
2021/12/20 02:47:39;;;;;;;0.25;0.25;;;;;;;10.06;60.51;102926.97;5048716;28;20074;-83
2021/12/20 02:50:06;;;;;;;0.00;0.00;;;;;;;10.09;60.85;102927.00;5050636;28;20112;-82
2021/12/20 02:52:33;;;;;;;0.20;0.20;;;;;;;10.12;61.32;102932.34;5050749;28;20037;-83
2021/12/20 02:54:59;;;;;;;0.10;0.10;;;;;;;10.12;61.21;102921.72;5051775;28;20095;-83
2021/12/20 02:57:27;;;;;;;0.10;0.10;;;;;;;10.14;62.00;102922.66;5052018;28;20037;-83
2021/12/20 02:59:53;;;;;;;0.17;0.17;;;;;;;10.13;61.36;102918.22;5052462;28;20025;-83
2021/12/20 03:02:21;;;;;;;0.20;0.20;;;;;;;10.13;61.29;102926.16;5050723;28;20041;-83
2021/12/20 03:04:47;;;;;;;0.20;0.20;;;;;;;10.15;61.65;102927.09;5045673;28;20040;-82
2021/12/20 03:07:21;;;;;;;0.13;0.13;;;;;;;10.16;62.09;102926.22;5037957;28;20389;-83
2021/12/20 03:09:53;;;;;;;0.10;0.10;;;;;;;10.17;62.62;102915.66;5038040;28;20036;-83
2021/12/20 03:12:19;;;;;;;0.20;0.20;;;;;;;10.12;61.21;102927.03;5038669;28;20114;-83
2021/12/20 03:14:49;;;;;;;0.17;0.17;;;;;;;10.13;61.33;102934.13;5029867;28;20036;-83
2021/12/20 03:17:15;;;;;;;0.10;0.10;;;;;;;10.14;61.68;102926.22;5036218;28;20040;-82
2021/12/20 03:19:41;;;;;;;0.10;0.10;;;;;;;10.10;60.65;102924.38;5036151;28;20476;-82
2021/12/20 03:22:08;;;;;;;0.10;0.10;;;;;;;10.06;59.87;102921.66;5035243;28;20043;-82
2021/12/20 03:24:34;;;;;;;0.30;0.30;;;;;;;10.09;60.89;102916.41;5036526;28;20614;-82
2021/12/20 03:27:00;;;;;;;0.10;0.10;;;;;;;10.00;59.04;102918.03;5039876;28;20036;-82
2021/12/20 03:29:27;;;;;;;0.17;0.17;;;;;;;10.03;59.47;102928.69;5036138;28;20392;-82
2021/12/20 03:31:53;;;;;;;0.10;0.10;;;;;;;10.07;60.44;102926.06;5036295;28;20503;-82
2021/12/20 03:34:20;;;;;;;0.10;0.10;;;;;;;10.08;60.70;102919.91;5036101;28;20088;-81
2021/12/20 03:36:47;;;;;;;0.10;0.10;;;;;;;10.07;60.05;102918.13;5035116;28;20032;-82
2021/12/20 03:39:14;;;;;;;0.13;0.13;;;;;;;10.12;60.74;102921.72;5035401;28;20033;-82
2021/12/20 03:41:40;;;;;;;0.20;0.20;;;;;;;10.09;60.12;102922.56;5037492;28;20515;-81
2021/12/20 03:44:07;;;;;;;0.15;0.15;;;;;;;10.12;61.07;102921.72;5037045;28;20075;-82
2021/12/20 03:46:35;;;;;;;0.10;0.10;;;;;;;10.11;60.83;102912.03;5035080;28;20075;-82
2021/12/20 03:49:07;;;;;;;0.13;0.13;;;;;;;10.13;60.95;102907.63;5024981;28;20068;-82
2021/12/20 03:51:34;;;;;;;0.20;0.20;;;;;;;10.11;59.91;102914.69;5024248;28;20058;-82
2021/12/20 03:54:00;;;;;;;0.10;0.10;;;;;;;10.12;60.60;102919.09;5023353;28;20065;-81
2021/12/20 03:56:26;;;;;;;0.10;0.10;;;;;;;10.13;60.62;102915.56;5022832;28;20025;-82
2021/12/20 03:58:53;;;;;;;0.20;0.20;;;;;;;10.12;60.01;102905.84;5011008;28;20025;-82
2021/12/20 04:01:19;;;;;;;0.30;0.30;;;;;;;10.13;60.64;102905.88;5046885;28;20380;-82
2021/12/20 04:03:45;;;;;;;0.10;0.10;;;;;;;10.14;61.30;102914.72;5046931;28;20036;-82
2021/12/20 04:06:13;;;;;;;0.20;0.20;;;;;;;10.15;60.87;102916.50;5035951;28;20045;-82
2021/12/20 04:08:41;;;;;;;0.13;0.13;;;;;;;10.16;60.67;102919.16;5043644;28;20051;-83
2021/12/20 04:11:08;;;;;;;0.10;0.10;;;;;;;10.14;60.95;102915.63;5041830;28;20025;-83
2021/12/20 04:13:35;;;;;;;0.10;0.10;;;;;;;10.15;60.79;102919.16;5020498;28;20552;-82
2021/12/20 04:16:02;;;;;;;0.20;0.20;;;;;;;10.16;61.21;102919.16;5022679;28;20148;-82
2021/12/20 04:18:31;;;;;;;0.20;0.20;;;;;;;10.17;61.55;102914.78;5025120;28;20032;-82
2021/12/20 04:20:57;;;;;;;0.20;0.20;;;;;;;10.17;61.58;102918.31;5022228;28;20070;-83
2021/12/20 04:23:23;;;;;;;0.10;0.10;;;;;;;10.18;62.01;102919.19;5024138;28;20033;-82
2021/12/20 04:25:49;;;;;;;0.15;0.15;;;;;;;10.17;62.06;102917.44;5025375;28;20496;-83
2021/12/20 04:28:15;;;;;;;0.20;0.20;;;;;;;10.16;61.84;102918.28;5019690;28;20041;-83
2021/12/20 04:30:42;;;;;;;0.10;0.10;;;;;;;10.16;61.85;102919.16;5025254;28;20428;-82
2021/12/20 04:33:08;;;;;;;0.10;0.10;;;;;;;10.18;61.73;102924.47;5023543;28;20041;-82
2021/12/20 04:35:34;;;;;;;0.10;0.10;;;;;;;10.17;61.75;102914.78;5024312;28;20005;-82
2021/12/20 04:38:02;;;;;;;0.10;0.10;;;;;;;10.16;61.68;102918.28;5024643;28;20029;-83
2021/12/20 04:40:28;;;;;;;0.13;0.13;;;;;;;10.16;61.45;102913.00;5020893;28;20018;-82
2021/12/20 04:42:58;;;;;;;0.10;0.10;;;;;;;10.16;61.54;102913.00;5030387;28;20059;-82
2021/12/20 04:45:26;;;;;;;0.10;0.10;;;;;;;10.18;61.83;102914.78;5035100;28;20079;-81
2021/12/20 04:47:53;;;;;;;0.15;0.15;;;;;;;10.17;61.98;102915.66;5034956;28;20040;-82
2021/12/20 04:50:21;;;;;;;0.20;0.20;;;;;;;10.18;62.08;102908.59;5024728;28;20455;-82
2021/12/20 04:52:48;;;;;;;0.10;0.10;;;;;;;10.17;62.32;102922.72;5017794;28;20463;-82
2021/12/20 04:55:15;;;;;;;0.10;0.10;;;;;;;10.15;61.87;102912.06;5029044;28;20026;-83
2021/12/20 04:57:42;;;;;;;0.17;0.17;;;;;;;10.12;61.48;102922.66;5025652;28;20062;-82
2021/12/20 05:00:13;;;;;;;0.10;0.10;;;;;;;10.14;61.85;102917.38;5022215;28;20450;-82
2021/12/20 05:02:40;;;;;;;0.10;0.10;;;;;;;10.09;61.61;102911.97;5021402;28;20030;-82
2021/12/20 05:05:09;;;;;;;0.20;0.20;;;;;;;10.10;61.43;102919.06;5018709;28;20026;-82
2021/12/20 05:07:37;;;;;;;0.10;0.10;;;;;;;10.09;61.55;102916.41;5024669;28;20052;-82
2021/12/20 05:10:04;;;;;;;0.20;0.20;;;;;;;10.09;61.75;102917.28;5021926;28;20026;-81
2021/12/20 05:12:31;;;;;;;0.10;0.10;;;;;;;10.10;61.53;102918.19;5023046;28;20041;-81
2021/12/20 05:14:57;;;;;;;0.10;0.10;;;;;;;10.08;61.33;102914.63;5021604;28;20053;-82
2021/12/20 05:17:23;;;;;;;0.10;0.10;;;;;;;10.07;61.70;102912.84;5023377;28;20388;-82
2021/12/20 05:19:49;;;;;;;0.10;0.10;;;;;;;10.07;61.93;102919.03;5026851;28;20028;-82
2021/12/20 05:22:15;;;;;;;0.20;0.20;;;;;;;10.07;61.56;102919.03;5020597;28;20030;-82
2021/12/20 05:24:41;;;;;;;0.10;0.10;;;;;;;10.06;61.49;102926.97;5022935;28;20041;-82
2021/12/20 05:27:08;;;;;;;0.10;0.10;;;;;;;10.07;61.79;102928.72;5015786;28;20105;-82
2021/12/20 05:29:34;;;;;;;0.10;0.10;;;;;;;10.04;61.00;102925.19;5025337;28;20038;-82
2021/12/20 05:32:03;;;;;;;0.17;0.17;;;;;;;10.05;61.69;102926.06;5028326;28;20457;-82
2021/12/20 05:34:29;;;;;;;0.95;0.95;;;;;;;10.04;61.22;102933.13;5018726;28;20033;-82
2021/12/20 05:36:55;;;;;;;0.17;0.17;;;;;;;10.01;61.05;102929.53;5018674;28;20052;-82
2021/12/20 05:39:21;;;;;;;0.10;0.10;;;;;;;10.03;61.73;102927.78;5019192;28;20068;-82
2021/12/20 05:41:48;;;;;;;0.20;0.20;;;;;;;10.02;61.79;102926.91;5008443;28;20086;-82
2021/12/20 05:44:14;;;;;;;1.00;1.00;;;;;;;10.01;61.26;102929.53;5023747;28;20120;-82
2021/12/20 05:46:40;;;;;;;0.15;0.15;;;;;;;9.99;61.53;102932.16;5031841;28;20472;-82
2021/12/20 05:49:06;;;;;;;0.15;0.15;;;;;;;9.98;61.44;102930.38;5045046;28;20400;-82
2021/12/20 05:51:32;;;;;;;0.17;0.17;;;;;;;9.97;61.45;102931.25;5041803;28;20039;-83
2021/12/20 05:53:58;;;;;;;0.10;0.10;;;;;;;9.94;60.54;102928.53;5035109;28;20037;-82
2021/12/20 05:56:24;;;;;;;0.20;0.20;;;;;;;9.88;60.13;102936.38;5034980;28;20075;-82
2021/12/20 05:58:50;;;;;;;0.10;0.10;;;;;;;9.93;60.46;102936.44;5045362;28;20539;-82
2021/12/20 06:01:16;;;;;;;0.20;0.20;;;;;;;9.91;59.63;102932.91;5036063;28;20125;-82
2021/12/20 06:03:43;;;;;;;0.20;0.20;;;;;;;9.91;59.14;102928.50;5040880;28;20030;-81
2021/12/20 06:06:09;;;;;;;0.10;0.10;;;;;;;9.93;59.88;102934.72;5027530;28;20029;-82
2021/12/20 06:08:35;;;;;;;0.10;0.10;;;;;;;9.90;58.64;102937.28;5015031;28;20090;-82
2021/12/20 06:11:02;;;;;;;0.10;0.10;;;;;;;9.93;60.36;102932.06;5038393;28;20037;-83
2021/12/20 06:13:28;;;;;;;0.17;0.17;;;;;;;9.93;60.25;102942.66;5033485;28;20037;-83
2021/12/20 06:15:54;;;;;;;0.10;0.10;;;;;;;9.94;60.57;102939.13;5032863;28;20025;-81
2021/12/20 06:18:20;;;;;;;0.10;0.10;;;;;;;9.93;60.06;102939.09;5033515;28;20029;-82
2021/12/20 06:20:46;;;;;;;0.15;0.15;;;;;;;9.94;59.86;102947.06;5040331;28;20031;-81
2021/12/20 06:23:13;;;;;;;0.20;0.20;;;;;;;9.93;60.06;102936.44;5044611;28;20025;-82
2021/12/20 06:25:39;;;;;;;0.10;0.10;;;;;;;9.93;60.70;102940.00;5033398;28;20034;-83
2021/12/20 06:28:06;;;;;;;0.10;0.10;;;;;;;9.90;59.69;102932.00;5042550;28;20388;-82
2021/12/20 06:30:32;;;;;;;0.10;0.10;;;;;;;9.88;59.62;102928.44;5035104;28;20392;-82
2021/12/20 06:32:58;;;;;;;0.10;0.10;;;;;;;9.88;59.66;102934.63;5034830;28;20057;-82
2021/12/20 06:35:24;;;;;;;0.10;0.10;;;;;;;9.91;59.42;102938.22;5040935;28;20032;-82
2021/12/20 06:37:59;;;;;;;0.20;0.20;;;;;;;9.91;58.75;102928.50;5026261;28;20061;-81
2021/12/20 06:40:27;;;;;;;0.10;0.10;;;;;;;9.91;58.38;102943.50;5037678;28;20052;-82
2021/12/20 06:42:53;;;;;;;0.17;0.17;;;;;;;9.89;58.60;102951.41;5036439;28;20037;-82
2021/12/20 06:45:19;;;;;;;0.10;0.10;;;;;;;9.91;59.10;102949.69;5042229;28;20121;-82
2021/12/20 06:47:46;;;;;;;0.10;0.10;;;;;;;9.91;58.64;102943.50;5037658;28;20033;-82
2021/12/20 06:50:12;;;;;;;0.25;0.25;;;;;;;9.82;58.01;102939.81;5046350;28;20036;-81
2021/12/20 06:52:38;;;;;;;0.10;0.10;;;;;;;9.82;58.21;102950.41;5040408;28;20057;-81
2021/12/20 06:55:05;;;;;;;0.10;0.10;;;;;;;9.80;58.61;102953.91;5040792;28;20037;-82
2021/12/20 06:57:31;;;;;;;0.10;0.10;;;;;;;9.78;58.39;102955.63;5044903;28;20061;-81
2021/12/20 07:00:00;;;;;;;0.10;0.10;;;;;;;9.74;59.48;102946.72;5045331;28;20032;-81
2021/12/20 07:02:27;;;;;;;0.10;0.10;;;;;;;9.72;59.45;102948.47;5054109;28;20025;-82
2021/12/20 07:04:53;;;;;;;0.10;0.10;;;;;;;9.68;59.93;102952.81;5040054;28;20041;-82
2021/12/20 07:07:19;;;;;;;0.15;0.15;;;;;;;9.66;60.11;102949.25;5049523;28;20049;-82
2021/12/20 07:09:45;;;;;;;0.10;0.10;;;;;;;9.62;60.04;102955.38;5040166;28;20061;-83
2021/12/20 07:12:11;;;;;;;0.10;0.10;;;;;;;9.58;60.56;102961.44;5040487;28;20040;-83
2021/12/20 07:14:38;;;;;;;0.10;0.10;;;;;;;9.54;60.65;102955.22;5036731;28;20034;-81
2021/12/20 07:17:05;;;;;;;0.10;0.10;;;;;;;9.51;60.65;102959.56;5031375;28;20764;-82
2021/12/20 07:19:31;;;;;;;0.10;0.10;;;;;;;9.49;61.06;102961.28;5025825;28;20347;-82
2021/12/20 07:21:57;;;;;;;0.10;0.10;;;;;;;9.45;61.14;102962.09;5036859;28;20032;-81
2021/12/20 07:24:23;;;;;;;0.10;0.10;;;;;;;9.42;61.15;102962.03;5045518;28;20037;-82
2021/12/20 07:26:50;;;;;;;0.10;0.10;;;;;;;9.39;61.05;102963.78;5038149;28;20091;-81
2021/12/20 07:29:19;;;;;;;0.10;0.10;;;;;;;9.39;61.26;102961.13;5035487;28;20049;-81
2021/12/20 07:31:46;;;;;;;0.10;0.10;;;;;;;9.35;61.48;102956.63;5015210;28;20033;-82
2021/12/20 07:34:17;;;;;;;0.10;0.10;;;;;;;9.36;61.74;102958.41;5031253;28;20342;-80
2021/12/20 07:36:46;;;;;;;2.00;0.40;;;;;;;9.34;61.40;102951.31;5044182;28;20108;-81
2021/12/20 07:39:12;;;;;;;0.10;0.10;;;;;;;9.33;61.49;102961.00;5035398;28;20033;-82
2021/12/20 07:41:38;;;;;;;0.10;0.10;;;;;;;9.34;61.50;102956.59;5041618;28;20040;-81
2021/12/20 07:44:04;;;;;;;0.10;0.10;;;;;;;9.33;61.29;102954.81;5037084;28;20021;-81
2021/12/20 07:46:31;;;;;;;0.10;0.10;;;;;;;9.31;61.88;102952.16;5035993;28;20104;-82
2021/12/20 07:48:58;;;;;;;0.10;0.10;;;;;;;9.32;61.57;102953.94;5036468;28;20060;-82
2021/12/20 07:51:24;;;;;;;0.15;0.15;;;;;;;9.32;61.88;102959.22;5030426;28;20504;-82
2021/12/20 07:53:50;;;;;;;0.10;0.10;;;;;;;9.32;62.08;102964.50;5038405;28;20127;-82
2021/12/20 07:56:18;;;;;;;0.10;0.10;;;;;;;9.32;62.01;102968.91;5040363;28;20041;-81
2021/12/20 07:58:44;;;;;;;0.10;0.10;;;;;;;9.34;62.23;102970.72;5043750;28;20155;-82
2021/12/20 08:01:11;;;;;;;0.10;0.10;;;;;;;9.35;62.63;102966.31;5041414;28;20063;-83
2021/12/20 08:03:38;;;;;;;0.10;0.10;;;;;;;9.37;62.73;102973.44;5032516;28;20029;-80
2021/12/20 08:06:05;;;;;;;0.10;0.10;;;;;;;9.38;62.67;102969.00;5033406;28;20045;-82
2021/12/20 08:08:32;;;;;;;0.15;0.15;;;;;;;9.38;62.54;102969.94;5022452;28;20022;-82
2021/12/20 08:11:05;;;;;;;0.10;0.10;;;;;;;9.43;62.61;102971.75;5025804;28;20045;-83
2021/12/20 08:13:44;;;;;;;0.10;0.10;;;;;;;9.44;62.45;102965.59;5025294;28;20068;-82
2021/12/20 08:16:14;;;;;;;0.10;0.10;;;;;;;9.44;62.67;102978.84;5027654;28;21023;-83
2021/12/20 08:18:42;;;;;;;0.10;0.10;;;;;;;9.44;62.32;102969.13;5033851;28;20032;-82
2021/12/20 08:21:08;;;;;;;0.10;0.10;;;;;;;9.48;62.68;102975.38;5035024;28;20056;-82
2021/12/20 08:23:35;;;;;;;0.10;0.10;;;;;;;9.50;61.89;102978.97;5033313;28;20121;-83
2021/12/20 08:26:02;;;;;;;0.10;0.10;;;;;;;9.52;61.71;102978.13;5032897;28;20033;-83
2021/12/20 08:28:29;;;;;;;0.10;0.10;;;;;;;9.55;61.73;102987.88;5032847;28;20041;-83
2021/12/20 08:30:55;;;;;;;0.10;0.10;;;;;;;9.53;61.93;102985.19;5016154;28;20116;-82
2021/12/20 08:33:21;;;;;;;0.10;0.10;;;;;;;9.57;62.32;102987.88;5032579;28;20108;-83
2021/12/20 08:35:49;;;;;;;0.10;0.10;;;;;;;9.59;62.24;102989.69;5035247;28;20083;-83
2021/12/20 08:38:17;;;;;;;0.10;0.10;;;;;;;9.61;62.00;102987.97;5036453;28;20041;-83
2021/12/20 08:40:43;;;;;;;0.10;0.10;;;;;;;9.62;62.05;102984.47;5038902;28;20025;-89
2021/12/20 08:43:10;;;;;;;0.10;0.10;;;;;;;9.64;62.23;102976.56;5034030;28;20031;-83
2021/12/20 08:45:36;;;;;;;0.20;0.20;;;;;;;9.63;62.76;102983.63;5033585;28;20040;-83
2021/12/20 08:48:03;;;;;;;0.10;0.10;;;;;;;9.68;62.35;102984.59;5048581;28;20119;-84
2021/12/20 08:50:29;;;;;;;0.10;0.10;;;;;;;9.71;62.23;102984.63;5047706;28;20430;-83
2021/12/20 08:52:55;;;;;;;0.20;0.20;;;;;;;9.75;62.05;102984.69;5035469;28;20398;-84
2021/12/20 08:55:23;;;;;;;0.10;0.10;;;;;;;9.77;62.10;102993.53;5034509;28;20033;-84
2021/12/20 08:57:50;;;;;;;0.20;0.20;;;;;;;9.76;62.12;102987.38;5041813;28;20075;-83
2021/12/20 09:00:21;;;;;;;0.10;0.10;;;;;;;9.83;62.35;102991.00;5034847;28;20041;-83
2021/12/20 09:02:48;;;;;;;0.10;0.10;;;;;;;9.82;61.79;102998.06;5039603;28;20026;-84
2021/12/20 09:05:15;;;;;;;0.25;0.25;;;;;;;9.86;61.69;102999.03;5020323;28;20041;-84
2021/12/20 09:07:42;;;;;;;0.30;0.30;;;;;;;9.91;62.28;102996.47;5035119;28;20025;-81
2021/12/20 09:10:10;;;;;;;2.92;1.10;;;;;;;9.96;62.33;103005.38;5035461;28;20033;-82
2021/12/20 09:12:37;;;;;;;1.17;1.17;;;;;;;9.97;61.88;103001.84;5032961;28;20033;-82
2021/12/20 09:15:04;;;;;;;0.10;0.10;;;;;;;10.00;61.66;103008.06;5018167;28;20389;-82
2021/12/20 09:17:30;;;;;;;0.13;0.13;;;;;;;10.02;61.61;103001.06;5039199;28;20025;-84
2021/12/20 09:19:56;;;;;;;0.10;0.10;;;;;;;10.05;61.13;103002.88;5032991;28;20044;-82
2021/12/20 09:22:27;;;;;;;0.68;0.68;;;;;;;10.07;61.14;103003.78;5032002;28;20128;-84
2021/12/20 09:24:54;;;;;;;0.10;0.10;;;;;;;10.09;61.13;103007.34;5037069;28;20537;-84
2021/12/20 09:27:21;;;;;;;0.10;0.10;;;;;;;10.12;61.06;103010.06;5028325;28;20040;-81
2021/12/20 09:29:49;;;;;;;3.30;1.55;;;;;;;10.12;60.97;103014.44;5024610;28;20029;-84
2021/12/20 09:32:17;;;;;;;0.63;0.63;;;;;;;10.13;60.70;103003.91;5024660;28;20041;-84
2021/12/20 09:34:43;;;;;;;0.20;0.20;;;;;;;10.14;60.60;103004.78;5017008;28;20109;-84
2021/12/20 09:37:09;;;;;;;0.10;0.10;;;;;;;10.16;61.39;103011.00;5017682;28;20485;-84
2021/12/20 09:39:38;;;;;;;0.20;0.20;;;;;;;10.18;60.84;103009.25;5029485;28;20052;-85
2021/12/20 09:42:06;;;;;;;0.15;0.15;;;;;;;10.20;61.02;103010.19;5018054;28;20029;-85
2021/12/20 09:44:33;;;;;;;0.10;0.10;;;;;;;10.22;61.45;103015.50;5032393;28;20404;-82
2021/12/20 09:47:02;;;;;;;0.20;0.20;;;;;;;10.27;61.47;103017.38;5027119;28;20124;-81
2021/12/20 09:49:29;;;;;;;0.15;0.15;;;;;;;10.29;61.13;103012.09;5027033;28;20117;-88
2021/12/20 09:51:58;;;;;;;0.10;0.10;;;;;;;10.25;60.60;103023.50;5025645;28;20088;-82
2021/12/20 09:54:26;;;;;;;0.10;0.10;;;;;;;10.26;60.63;103020.88;5020479;28;20052;-83
2021/12/20 09:56:53;;;;;;;0.10;0.10;;;;;;;10.27;60.89;103024.41;5034342;28;20112;-83
2021/12/20 09:59:22;;;;;;;0.10;0.10;;;;;;;10.29;61.34;103014.72;5038050;28;20095;-84
2021/12/20 10:01:50;;;;;;;0.20;0.20;;;;;;;10.29;60.95;103015.66;5036753;28;20022;-83
2021/12/20 10:04:17;;;;;;;0.15;0.15;;;;;;;10.35;61.19;103013.09;5033953;28;20132;-82
2021/12/20 10:06:44;;;;;;;0.10;0.10;;;;;;;10.42;60.84;103015.84;5032311;28;20385;-83
2021/12/20 10:09:14;;;;;;;0.10;0.10;;;;;;;10.44;60.58;103014.13;5033020;28;20060;-84
2021/12/20 10:11:43;;;;;;;0.20;0.20;;;;;;;10.51;61.13;103016.00;5034074;28;20349;-84
2021/12/20 10:14:12;;;;;;;0.10;0.10;;;;;;;10.55;60.70;103014.28;5031847;28;20504;-85
2021/12/20 10:16:40;;;;;;;0.13;0.13;;;;;;;10.58;61.07;103017.88;5037046;28;20026;-83
2021/12/20 10:19:27;;;;;;;0.25;0.25;;;;;;;10.64;61.27;103023.28;5034852;28;20031;-85
2021/12/20 10:21:55;;;;;;;0.10;0.10;;;;;;;10.70;60.92;103021.56;5035137;28;20034;-85
2021/12/20 10:24:31;;;;;;;0.50;0.50;;;;;;;10.77;60.44;103024.34;5035131;28;20570;-86
2021/12/20 10:26:58;;;;;;;0.10;0.10;;;;;;;10.72;60.09;103015.44;5031156;28;20029;-85
2021/12/20 10:29:24;;;;;;;0.10;0.10;;;;;;;10.77;60.84;103007.53;5039214;28;20036;-86
2021/12/20 10:31:52;;;;;;;0.10;0.10;;;;;;;10.85;60.63;103011.19;5035596;28;20137;-85
2021/12/20 10:34:29;;;;;;;0.10;0.10;;;;;;;10.87;57.17;103012.09;5035921;28;20060;-84
2021/12/20 10:36:57;;;;;;;0.10;0.10;;;;;;;11.02;58.96;103005.22;5035877;28;20026;-85
2021/12/20 10:39:45;;;;;;;0.68;0.40;;;;;;;11.17;59.99;103014.25;5038650;28;20032;-86
2021/12/20 10:42:18;;;;;;;0.10;0.10;;;;;;;11.12;58.06;103018.59;5036319;28;20055;-86
2021/12/20 10:45:04;;;;;;;0.17;0.17;;;;;;;11.21;58.84;103009.88;5039041;28;20048;-86
2021/12/20 10:47:31;;;;;;;0.10;0.10;;;;;;;11.25;58.80;103016.09;5035244;28;20079;-85
2021/12/20 10:49:57;;;;;;;0.10;0.10;;;;;;;11.25;57.40;103008.16;5037393;28;20030;-85
2021/12/20 10:52:27;;;;;;;0.10;0.10;;;;;;;11.33;57.75;103007.34;5036682;28;20028;-86
2021/12/20 10:54:55;;;;;;;0.10;0.10;;;;;;;11.35;56.76;103011.81;5037090;28;20034;-85
2021/12/20 10:57:28;;;;;;;0.10;0.10;;;;;;;11.40;56.95;103015.41;5036378;28;20025;-86
2021/12/20 11:00:16;;;;;;;0.10;0.10;;;;;;;11.43;55.22;103005.72;5036551;28;20034;-85
2021/12/20 11:09:05;;;;;;;0.10;0.10;;;;;;;11.32;57.68;103016.19;5089389;28;20509;-84
2021/12/20 11:11:33;;;;;;;0.10;0.10;;;;;;;11.30;58.55;103015.31;5070561;28;20056;-85
2021/12/20 11:14:01;;;;;;;0.10;0.10;;;;;;;11.31;58.43;103008.22;5070210;28;20035;-84
2021/12/20 11:19:27;;;;;;;0.10;0.10;;;;;;;11.37;58.33;103015.38;5090087;27;20426;-85
2021/12/20 11:21:58;;;;;;;0.10;0.10;;;;;;;11.35;58.37;103004.72;5069816;28;20086;-84
2021/12/20 11:24:28;;;;;;;0.10;0.10;;;;;;;11.36;57.67;103003.84;5069789;28;20037;-84
2021/12/20 11:26:56;;;;;;;0.20;0.20;;;;;;;11.38;58.45;102995.94;5065601;28;20021;-83
2021/12/20 11:29:22;;;;;;;0.10;0.10;;;;;;;11.38;57.63;102993.28;5046516;28;20045;-84
2021/12/20 11:31:50;;;;;;;0.10;0.10;;;;;;;11.43;59.14;103002.19;5044873;28;20037;-81
2021/12/20 11:34:17;;;;;;;0.10;0.10;;;;;;;11.42;58.46;102998.63;5045101;28;20055;-84
2021/12/20 11:36:43;;;;;;;0.10;0.10;;;;;;;11.47;58.56;102996.00;5046184;28;20025;-84
2021/12/20 11:39:10;;;;;;;0.10;0.10;;;;;;;11.44;56.39;103006.59;5036498;28;20064;-86
2021/12/20 11:41:39;;;;;;;0.10;0.10;;;;;;;11.42;57.32;102995.97;5038950;28;20052;-82
2021/12/20 11:44:07;;;;;;;0.10;0.10;;;;;;;11.48;59.57;103000.47;5038154;28;20121;-82
2021/12/20 11:46:47;;;;;;;0.17;0.17;;;;;;;11.42;56.92;103001.25;5045479;28;20033;-85
2021/12/20 11:49:20;;;;;;;0.17;0.17;;;;;;;11.44;58.16;102994.22;5037600;28;20048;-82